Airfield :
LOGIN :

Register | Disclaimer

   EN    FR    IT 

 










Legend :    VFR   Marginal VFR   IFR   Intensive IFR   Very Intensive IFR
Visi :
Ceiling :
>= 8 km
>= 3000ft
5 to 8 km
1000 to 3000 ft
1500m to 5 km
500 to 1000 ft
800 to 1500m
200 to 500 ft
< 800m
< 200 ft
Symbols :   Thunderstorms  Fog  Heavy snow  Heavy precipitations  Wind > 20 kt
SIGMETs :     Misc.  Thunderstorms  Icing  Turbulence  Mountain Waves  Volcanic Ashes







- Airport Elevation : 219 ft
- IATA code : DNR
- Download approach charts


LFRD - Dinard

CURRENT METAR :
  • 261230Z AUTO 23010KT 210V270 9999 BKN016 OVC024 21/18 Q1011 TEMPO RADZ BKN010

EXPIRED METARs :
  • 261200Z AUTO 23011KT 200V260 9999 BKN015 BKN020 OVC026 21/18 Q1011 TEMPO RADZ BKN010
  • 261130Z AUTO 22010KT 9999 BKN014 BKN019 OVC024 20/18 Q1011 TEMPO RADZ
  • 261100Z AUTO 23008KT 9999 OVC012 20/18 Q1011 TEMPO BKN009
  • 261030Z AUTO 22009KT 9999 BKN010 OVC015 20/18 Q1011 TEMPO BKN015
  • 261000Z AUTO 23010KT 200V260 9999 BKN010 BKN018 BKN023 19/18 Q1012 BECMG BKN020
  • 260930Z AUTO 22005KT 9999 -RA FEW007 SCT024 BKN033 19/18 Q1011 NOSIG

TAF TAF LFRD
Valid from the 26 at 12:00 until the 27 at 12:00 UTC


261100Z 2612/2712 23012KT 9999 BKN015
TEMPO 2612/2616 5000 RADZ BKN010
TEMPO 2616/2622 3000 RADZ BKN008
BECMG 2618/2621 30010KT
BECMG 2623/2701 25005KT
ATIS : +33 2 99 16 81 50
No reported NOTAMs for that airfield.



MET'MAP, your aeronautical weather chart ! - Copyright ORBIFLY December 2007 - Disclaimer

ORBIFLY MET'MAP TEAM :

Programming & Development : Alexandra Zaïnal
Concept & Development : Baudouin d'Aumeries
Co-Development & Prog : Marc-Olivier Méhu
Technical & hardware support : Manuel Goepfert

Contact : metmap@orbifly.com




SOURCES & CREDITS :

   NOAA